Moss Bluff, Texas
Current Conditions -  °F | °C
As of 3:55 PM on Friday 28 Nov 2014 (Local Time) from K6R3 Reporting Station
Broken Clouds Broken Clouds  
Wind Chill: 66°   Ceiling: 3400
Heat Index: 66°   Visibility: 7mi
Dew Point: 56°   Wind: 6mph
Humidity: 70%   Direction: 160°SSE
Pressure: 30.2"   Gusts: 16mph
Location:  30.0821°N, 94.7401°W
Report Text: K6R3 282155Z AUTO 16005G14KT 7SM BKN034 BKN050 19/14 A3020 RMK AO2 T01900135
Loading
Personal Weather Stations






























Interactive Weather Map New forecast layout! Learn more

10-Day Weather Forecast

Advertisements
Track Severe Weather on mobile